This is the latest recevied weather packets stored in our database for station/object E23JWE-1. If no packets are shown the sender has not sent any weather packets the latest 10 day(s).
| Time | Temp. | Humidity | Pressure | Rain* | Wind** | Luminosity | Snow |
|---|---|---|---|---|---|---|---|
| 1777655968 | 32.22° C | 92% | 1009 hPa | - | - | 0 W/m² | - |
| 1777654143 | 32.22° C | 90% | 1009 hPa | - | - | 0 W/m² | - |
| 1777652317 | 31.67° C | 99% | 1010 hPa | - | - | 0 W/m² | - |
| 1777650492 | 32.78° C | 92% | 1010 hPa | - | - | 0 W/m² | - |
| 1777648666 | 32.78° C | 90% | 1010 hPa | - | - | 0 W/m² | - |
| 1777646841 | 32.78° C | 89% | 1009 hPa | - | - | 0 W/m² | - |
| 1777645015 | 32.78° C | 89% | 1009 hPa | - | - | 0 W/m² | - |
| 1777643190 | 32.22° C | 88% | 1008 hPa | - | - | 0 W/m² | - |
| 1777641364 | 32.22° C | 88% | 1008 hPa | - | - | 0 W/m² | - |
| 1777639538 | 31.67° C | 88% | 1007 hPa | - | - | 0 W/m² | - |
| 1777637713 | 31.67° C | 85% | 1007 hPa | - | - | 0 W/m² | - |
| 1777635887 | 31.67° C | 82% | 1007 hPa | - | - | 0 W/m² | - |
| 1777634061 | 32.78° C | 74% | 1006 hPa | - | - | 5 W/m² | - |
| 1777632236 | 32.22° C | 80% | 1006 hPa | - | - | 14 W/m² | - |
| 1777630410 | 32.78° C | 67% | 1006 hPa | - | - | 22 W/m² | - |
| 1777628585 | 34.44° C | 64% | 1006 hPa | - | - | 32 W/m² | - |
| 1777626759 | 34.44° C | 56% | 1006 hPa | - | - | 44 W/m² | - |
| 1777624933 | 33.89° C | 57% | 1007 hPa | - | - | 54 W/m² | - |
| 1777623108 | 34.44° C | 64% | 1007 hPa | - | - | 48 W/m² | - |
| 1777621282 | 34.44° C | 68% | 1007 hPa | - | - | 42 W/m² | - |
| 1777619457 | 35° C | 70% | 1008 hPa | - | - | 54 W/m² | - |
| 1777617633 | 33.89° C | 74% | 1009 hPa | - | - | 41 W/m² | - |
| 1777615806 | 33.89° C | 77% | 1010 hPa | - | - | 35 W/m² | - |
| 1777613980 | 33.89° C | 79% | 1010 hPa | - | - | 32 W/m² | - |
| 1777612154 | 33.33° C | 81% | 1010 hPa | - | - | 28 W/m² | - |
* Rain since midnight (hover to see other rain measurements)
** Current wind speed in m/s (hover to see current wind gust speed)